createdAt,value
2018-02-13T00:02:01.615Z,31.55
2018-02-13T00:04:30.640Z,39.38
2018-02-13T00:07:00.483Z,32.47
2018-02-13T00:09:29.420Z,34.20
2018-02-13T00:11:58.385Z,34.95
2018-02-13T00:14:28.153Z,31.95
2018-02-13T00:16:57.095Z,35.13
2018-02-13T00:19:26.768Z,36.55
2018-02-13T00:21:55.677Z,37.05
2018-02-13T00:24:24.655Z,40.50
2018-02-13T00:26:53.633Z,32.53
2018-02-13T00:29:23.580Z,30.08
2018-02-13T00:31:53.295Z,31.55
2018-02-13T00:34:23.057Z,31.52
2018-02-13T00:36:52.014Z,32.30
2018-02-13T00:39:21.724Z,32.83
2018-02-13T00:44:49.905Z,29.17
2018-02-13T00:47:19.603Z,29.58
2018-02-13T00:49:49.408Z,37.70
2018-02-13T00:52:19.123Z,36.55
2018-02-13T00:54:48.817Z,28.10
2018-02-13T00:57:17.786Z,34.13
2018-02-13T00:59:47.509Z,31.45
2018-02-13T01:02:16.501Z,36.95
2018-02-13T01:04:45.413Z,31.67
2018-02-13T01:07:14.346Z,32.70
2018-02-13T01:09:43.289Z,34.92
2018-02-13T01:12:12.255Z,34.50
2018-02-13T01:14:41.559Z,32.65
2018-02-13T01:17:11.319Z,38.65
2018-02-13T01:19:40.993Z,32.15
2018-02-13T01:22:09.946Z,32.72
2018-02-13T01:24:38.877Z,27.35
2018-02-13T01:27:07.834Z,29.50
2018-02-13T01:29:36.797Z,37.75
2018-02-13T01:32:06.516Z,32.67
2018-02-13T01:34:35.413Z,32.03
2018-02-13T01:37:04.350Z,33.20
2018-02-13T01:39:33.289Z,29.60
2018-02-13T01:42:02.268Z,33.90
2018-02-13T01:44:32.317Z,32.95
2018-02-13T01:47:01.270Z,30.48
2018-02-13T01:49:30.964Z,27.17
2018-02-13T01:51:59.905Z,33.13
2018-02-13T01:54:28.907Z,31.20
2018-02-13T01:56:57.821Z,30.70
2018-02-13T01:59:26.703Z,28.95
2018-02-13T02:01:55.624Z,26.23
2018-02-13T02:04:24.546Z,28.42
2018-02-13T02:06:53.474Z,30.42
2018-02-13T02:09:22.439Z,28.52
2018-02-13T02:11:51.378Z,30.85
2018-02-13T02:14:20.316Z,29.12
2018-02-13T02:16:49.421Z,35.58
2018-02-13T02:19:18.381Z,28.20
2018-02-13T02:21:48.109Z,29.35
2018-02-13T02:24:17.064Z,25.60
2018-02-13T02:26:46.042Z,27.83
2018-02-13T02:29:15.845Z,27.50
2018-02-13T02:31:47.421Z,24.98
2018-02-13T02:34:16.348Z,27.15
2018-02-13T02:36:45.293Z,29.70
2018-02-13T02:39:14.209Z,27.62
2018-02-13T02:41:43.873Z,31.45
2018-02-13T02:44:12.852Z,25.15
2018-02-13T02:46:41.805Z,22.02
2018-02-13T02:49:11.496Z,26.33
2018-02-13T02:51:40.712Z,24.70
2018-02-13T02:54:10.393Z,23.27
2018-02-13T02:56:39.368Z,31.55
2018-02-13T02:59:08.487Z,21.92
2018-02-13T03:01:37.473Z,20.90
2018-02-13T03:04:06.413Z,25.73
2018-02-13T03:06:35.327Z,23.45
2018-02-13T03:09:04.487Z,24.37
2018-02-13T03:11:34.243Z,21.90
2018-02-13T03:14:03.181Z,19.33
2018-02-13T03:16:32.924Z,21.92
2018-02-13T03:19:02.058Z,22.98
2018-02-13T03:21:30.988Z,26.45
2018-02-13T03:24:00.660Z,24.73
2018-02-13T03:26:29.583Z,27.05
2018-02-13T03:28:59.276Z,25.65
2018-02-13T03:31:28.204Z,26.58
2018-02-13T03:33:57.149Z,26.37
2018-02-13T03:36:26.059Z,22.25
2018-02-13T03:38:55.800Z,26.87
2018-02-13T03:41:26.335Z,24.73
2018-02-13T03:43:56.020Z,23.48
2018-02-13T03:46:24.928Z,27.15
2018-02-13T03:48:53.837Z,21.65
2018-02-13T03:51:22.800Z,24.27
2018-02-13T03:53:52.477Z,21.73
2018-02-13T03:56:21.408Z,24.45
2018-02-13T03:58:50.308Z,22.40
2018-02-13T04:01:23.509Z,22.33
2018-02-13T04:03:52.424Z,21.85
2018-02-13T04:06:21.366Z,24.80
2018-02-13T04:09:53.666Z,23.40
2018-02-13T04:12:22.633Z,23.75
2018-02-13T04:14:51.855Z,21.27
2018-02-13T04:17:20.822Z,29.40
2018-02-13T04:19:50.638Z,26.15
2018-02-13T04:22:20.312Z,27.42
2018-02-13T04:24:49.772Z,23.30
2018-02-13T04:27:18.705Z,21.85
2018-02-13T04:29:48.992Z,23.85
2018-02-13T04:32:17.917Z,25.85
2018-02-13T04:38:18.056Z,29.52
2018-02-13T04:40:47.755Z,21.48
2018-02-13T04:43:16.687Z,21.08
2018-02-13T04:45:46.389Z,21.02
2018-02-13T04:48:15.312Z,18.12
2018-02-13T04:50:44.240Z,16.42
2018-02-13T04:53:13.221Z,21.23
2018-02-13T04:55:42.139Z,17.62
2018-02-13T04:58:11.076Z,24.35
2018-02-13T05:00:40.042Z,20.88
2018-02-13T05:03:09.013Z,16.08
2018-02-13T05:05:38.012Z,24.23
2018-02-13T05:08:06.895Z,18.15
2018-02-13T05:10:35.787Z,18.85
2018-02-13T05:13:04.778Z,20.55
2018-02-13T05:15:33.677Z,19.65
2018-02-13T05:18:02.636Z,22.15
2018-02-13T05:20:31.573Z,19.58
2018-02-13T05:23:00.672Z,22.40
2018-02-13T05:25:29.629Z,16.52
2018-02-13T05:27:58.634Z,16.33
2018-02-13T05:30:27.523Z,17.27
2018-02-13T05:32:56.825Z,18.50
2018-02-13T05:35:29.912Z,16.20
2018-02-13T05:37:58.931Z,17.52
2018-02-13T05:40:28.644Z,21.65
2018-02-13T05:42:58.341Z,14.20
2018-02-13T05:45:28.218Z,17.83
2018-02-13T05:47:57.185Z,18.60
2018-02-13T05:50:28.631Z,20.23
2018-02-13T05:52:57.577Z,13.75
2018-02-13T05:55:26.583Z,17.50
2018-02-13T05:57:55.530Z,16.05
2018-02-13T06:00:24.453Z,16.30
2018-02-13T06:02:53.417Z,18.10
2018-02-13T06:05:23.079Z,19.27
2018-02-13T06:07:53.520Z,17.00
2018-02-13T06:10:22.454Z,12.05
2018-02-13T06:12:51.503Z,16.12
2018-02-13T06:15:21.322Z,16.37
2018-02-13T06:17:50.576Z,15.82
2018-02-13T06:20:19.547Z,16.17
2018-02-13T06:22:48.553Z,16.02
2018-02-13T06:25:17.476Z,12.35
2018-02-13T06:27:47.268Z,14.25
2018-02-13T06:30:17.273Z,12.70
2018-02-13T06:32:50.230Z,10.95
2018-02-13T06:35:19.207Z,14.73
2018-02-13T06:37:48.162Z,12.88
2018-02-13T06:40:17.872Z,14.05
2018-02-13T06:42:46.835Z,17.85
2018-02-13T06:45:16.709Z,13.23
2018-02-13T06:47:46.480Z,11.43
2018-02-13T06:50:15.427Z,16.48
2018-02-13T06:52:44.424Z,9.30
2018-02-13T06:55:13.413Z,12.30
2018-02-13T06:57:42.421Z,10.95
2018-02-13T07:00:11.494Z,10.02
2018-02-13T07:02:40.427Z,11.93
2018-02-13T07:05:09.451Z,9.73
2018-02-13T07:07:39.186Z,11.48
2018-02-13T07:10:08.163Z,13.02
2018-02-13T07:12:37.900Z,13.10
2018-02-13T07:15:06.843Z,9.52
2018-02-13T07:17:41.441Z,11.65
2018-02-13T07:20:11.425Z,10.27
2018-02-13T07:22:40.380Z,9.75
2018-02-13T07:25:09.845Z,10.85
2018-02-13T07:27:38.871Z,11.73
2018-02-13T07:30:08.146Z,9.88
2018-02-13T07:32:37.092Z,10.43
2018-02-13T07:35:06.812Z,12.30
2018-02-13T07:37:35.836Z,11.85
2018-02-13T07:40:05.131Z,10.38
2018-02-13T07:42:34.119Z,12.00
2018-02-13T07:45:03.192Z,11.38
2018-02-13T07:47:38.326Z,6.45
2018-02-13T07:50:08.033Z,7.82
2018-02-13T07:52:38.180Z,13.23
2018-02-13T07:55:07.164Z,17.98
2018-02-13T07:57:36.192Z,8.90
2018-02-13T08:00:05.245Z,8.95
2018-02-13T08:02:34.993Z,8.50
2018-02-13T08:05:04.306Z,8.90
2018-02-13T08:07:41.390Z,9.25
2018-02-13T08:10:10.404Z,10.25
2018-02-13T08:12:39.672Z,7.07
2018-02-13T08:15:09.577Z,8.45
2018-02-13T08:17:39.290Z,9.05
2018-02-13T08:20:08.242Z,11.05
2018-02-13T08:22:37.219Z,12.45
2018-02-13T08:26:09.761Z,8.00
2018-02-13T08:28:38.800Z,7.60
2018-02-13T08:31:07.828Z,14.65
2018-02-13T08:33:36.764Z,7.18
2018-02-13T08:36:06.519Z,6.40
2018-02-13T08:38:35.579Z,10.15
2018-02-13T08:41:11.232Z,11.75
2018-02-13T08:43:41.067Z,7.85
2018-02-13T08:46:10.068Z,9.02
2018-02-13T08:48:39.780Z,10.00
2018-02-13T08:51:08.742Z,9.50
2018-02-13T08:53:38.518Z,8.95
2018-02-13T08:56:08.309Z,9.50
2018-02-13T08:58:37.278Z,10.93
2018-02-13T09:01:07.012Z,8.30
2018-02-13T09:03:35.974Z,11.07
2018-02-13T09:06:05.016Z,8.75
2018-02-13T09:08:34.039Z,10.20
2018-02-13T09:11:03.956Z,9.25
2018-02-13T09:13:33.780Z,13.82
2018-02-13T09:16:02.837Z,12.90
2018-02-13T09:18:31.922Z,12.27
2018-02-13T09:21:00.934Z,10.00
2018-02-13T09:23:29.918Z,8.88
2018-02-13T09:25:59.122Z,8.05
2018-02-13T09:28:29.006Z,10.27
2018-02-13T09:31:05.957Z,10.70
2018-02-13T09:33:34.983Z,11.70
2018-02-13T09:36:04.162Z,8.35
2018-02-13T09:38:33.212Z,7.25
2018-02-13T09:41:03.018Z,10.13
2018-02-13T09:43:32.839Z,6.05
2018-02-13T09:46:02.709Z,6.07
2018-02-13T09:48:31.638Z,7.85
2018-02-13T09:51:01.480Z,6.78
2018-02-13T09:53:30.449Z,6.03
2018-02-13T09:56:00.294Z,15.23
2018-02-13T09:58:29.338Z,8.50
2018-02-13T10:00:58.396Z,7.75
2018-02-13T10:03:27.437Z,10.43
2018-02-13T10:05:56.652Z,6.45
2018-02-13T10:08:26.468Z,9.70
2018-02-13T10:10:56.353Z,9.00
2018-02-13T10:13:25.442Z,7.00
2018-02-13T10:15:54.456Z,8.18
2018-02-13T10:18:24.313Z,7.55
2018-02-13T10:20:53.670Z,7.50
2018-02-13T10:23:23.019Z,8.35
2018-02-13T10:25:52.888Z,9.18
2018-02-13T10:28:21.923Z,6.95
2018-02-13T10:30:51.856Z,6.25
2018-02-13T10:33:21.342Z,9.23
2018-02-13T10:35:51.158Z,9.40
2018-02-13T10:38:20.294Z,8.57
2018-02-13T10:40:50.054Z,12.50
2018-02-13T10:43:19.060Z,7.47
2018-02-13T10:45:47.998Z,9.90
2018-02-13T10:48:17.772Z,11.73
2018-02-13T10:50:46.776Z,8.10
2018-02-13T10:53:16.497Z,8.70
2018-02-13T10:55:45.511Z,7.82
2018-02-13T10:58:15.259Z,9.82
2018-02-13T11:00:48.485Z,7.75
2018-02-13T11:03:17.504Z,8.57
2018-02-13T11:05:47.242Z,7.55
2018-02-13T11:08:16.219Z,10.13
2018-02-13T11:10:45.989Z,8.07
2018-02-13T11:13:15.039Z,7.00
2018-02-13T11:15:44.047Z,9.85
2018-02-13T11:18:13.094Z,7.70
2018-02-13T11:20:42.832Z,9.52
2018-02-13T11:23:42.717Z,8.20
2018-02-13T11:26:12.795Z,11.25
2018-02-13T11:28:42.624Z,10.82
2018-02-13T11:31:11.739Z,7.25
2018-02-13T11:33:41.567Z,12.35
2018-02-13T11:36:11.338Z,9.77
2018-02-13T11:38:41.091Z,8.40
2018-02-13T11:41:10.909Z,8.43
2018-02-13T11:43:40.705Z,11.68
2018-02-13T11:46:10.555Z,6.87
2018-02-13T11:48:39.562Z,9.38
2018-02-13T11:51:09.285Z,8.80
2018-02-13T11:53:38.272Z,12.20
2018-02-13T11:56:07.303Z,7.35
2018-02-13T11:58:36.367Z,10.52
2018-02-13T12:01:06.260Z,11.30
2018-02-13T12:06:34.689Z,8.65
2018-02-13T12:09:06.830Z,6.97
2018-02-13T12:11:35.915Z,7.62
2018-02-13T12:14:04.995Z,7.15
2018-02-13T12:16:34.243Z,7.40
2018-02-13T12:19:04.277Z,8.07
2018-02-13T12:21:39.535Z,8.10
2018-02-13T12:24:08.586Z,8.45
2018-02-13T12:26:38.418Z,6.93
2018-02-13T12:29:07.408Z,9.10
2018-02-13T12:31:36.510Z,6.62
2018-02-13T12:34:06.398Z,9.98
2018-02-13T12:36:35.429Z,6.60
2018-02-13T12:39:06.097Z,6.82
2018-02-13T12:41:36.030Z,6.57
2018-02-13T12:44:07.524Z,9.85
2018-02-13T12:46:37.380Z,9.25
2018-02-13T12:49:06.433Z,8.38
2018-02-13T12:51:35.445Z,7.03
2018-02-13T12:54:05.345Z,11.80
2018-02-13T12:56:35.296Z,11.98
2018-02-13T12:59:05.400Z,10.73
2018-02-13T13:01:35.402Z,8.60
2018-02-13T13:04:05.359Z,9.27
2018-02-13T13:06:35.211Z,7.45
2018-02-13T13:09:04.704Z,6.75
2018-02-13T13:11:34.497Z,6.87
2018-02-13T13:14:04.364Z,5.65
2018-02-13T13:16:34.188Z,10.40
2018-02-13T13:20:23.345Z,11.02
2018-02-13T13:22:53.113Z,5.62
2018-02-13T13:25:22.096Z,10.23
2018-02-13T13:27:51.090Z,5.20
2018-02-13T13:30:20.089Z,3.80
2018-02-13T13:32:49.156Z,4.25
2018-02-13T13:35:19.405Z,5.90
2018-02-13T13:37:49.260Z,5.25
2018-02-13T13:40:19.053Z,5.30
2018-02-13T13:42:48.051Z,6.03
2018-02-13T13:45:17.057Z,6.80
2018-02-13T13:48:49.295Z,4.90
2018-02-13T13:51:19.153Z,5.20
2018-02-13T13:53:48.945Z,7.28
2018-02-13T13:59:17.139Z,3.40
2018-02-13T14:01:47.450Z,3.15
2018-02-13T14:04:17.356Z,3.62
2018-02-13T14:06:46.541Z,5.32
2018-02-13T14:09:15.689Z,5.18
2018-02-13T14:11:45.534Z,5.57
2018-02-13T14:14:14.600Z,8.50
2018-02-13T14:16:44.599Z,4.68
2018-02-13T14:19:14.520Z,4.60
2018-02-13T14:25:14.793Z,6.72
2018-02-13T14:27:43.939Z,6.07
2018-02-13T14:30:13.821Z,5.07
2018-02-13T14:32:43.625Z,7.20
2018-02-13T14:35:13.541Z,4.03
2018-02-13T14:37:42.569Z,4.87
2018-02-13T14:40:13.398Z,8.45
2018-02-13T14:42:43.219Z,7.95
2018-02-13T14:45:12.209Z,7.43
2018-02-13T14:47:45.976Z,4.15
2018-02-13T14:50:15.165Z,4.55
2018-02-13T14:52:51.583Z,4.65
2018-02-13T14:55:20.555Z,5.05
2018-02-13T14:57:49.582Z,4.18
2018-02-13T15:00:19.466Z,7.93
2018-02-13T15:02:48.514Z,4.57
2018-02-13T15:05:18.618Z,6.82
2018-02-13T15:07:47.688Z,6.25
2018-02-13T15:10:17.995Z,4.00
2018-02-13T15:12:47.113Z,6.07
2018-02-13T15:15:16.330Z,7.03
2018-02-13T15:17:45.505Z,7.28
2018-02-13T15:20:14.489Z,7.57
2018-02-13T15:22:43.518Z,5.37
2018-02-13T15:25:13.376Z,9.15
2018-02-13T15:27:43.072Z,8.63
2018-02-13T15:30:12.886Z,8.95
2018-02-13T15:32:41.946Z,6.25
2018-02-13T15:35:11.701Z,4.62
2018-02-13T15:37:40.949Z,5.65
2018-02-13T15:40:10.047Z,4.43
2018-02-13T15:42:40.044Z,7.62
2018-02-13T15:45:09.040Z,7.37
2018-02-13T15:47:38.324Z,6.20
2018-02-13T15:50:08.338Z,7.37
2018-02-13T15:52:37.685Z,13.73
2018-02-13T15:55:06.930Z,7.43
2018-02-13T15:57:36.850Z,10.52
2018-02-13T16:00:06.025Z,6.15
2018-02-13T16:02:35.052Z,6.30
2018-02-13T16:05:04.172Z,5.47
2018-02-13T16:07:34.773Z,4.93
2018-02-13T16:10:03.851Z,6.68
2018-02-13T16:12:33.696Z,9.98
2018-02-13T16:15:02.764Z,6.93
2018-02-13T16:17:31.787Z,8.25
2018-02-13T16:20:01.798Z,11.02
2018-02-13T16:22:30.777Z,12.90
2018-02-13T16:24:59.802Z,12.88
2018-02-13T16:27:29.655Z,10.13
2018-02-13T16:29:58.650Z,10.20
2018-02-13T16:32:28.591Z,7.87
2018-02-13T16:34:57.588Z,8.35
2018-02-13T16:37:26.671Z,12.02
2018-02-13T16:39:55.779Z,11.35
2018-02-13T16:42:24.927Z,10.30
2018-02-13T16:44:54.876Z,13.60
2018-02-13T16:47:28.716Z,12.27
2018-02-13T16:49:58.525Z,15.63
2018-02-13T16:52:28.598Z,13.32
2018-02-13T16:54:58.347Z,12.07
2018-02-13T16:57:27.371Z,17.45
2018-02-13T16:59:57.138Z,14.80
2018-02-13T17:02:26.207Z,16.70
2018-02-13T17:04:55.294Z,16.30
2018-02-13T17:07:24.428Z,11.75
2018-02-13T17:09:53.400Z,13.25
2018-02-13T17:12:22.374Z,12.30
2018-02-13T17:14:51.422Z,11.25
2018-02-13T17:17:20.541Z,14.87
2018-02-13T17:19:50.426Z,13.38
2018-02-13T17:22:20.232Z,12.68
2018-02-13T17:24:49.267Z,12.65
2018-02-13T17:27:19.178Z,22.42
2018-02-13T17:29:48.988Z,18.35
2018-02-13T17:32:18.747Z,14.93
2018-02-13T17:34:48.385Z,21.02
2018-02-13T17:37:17.594Z,15.45
2018-02-13T17:39:47.439Z,18.52
2018-02-13T17:42:16.573Z,16.12
2018-02-13T17:44:46.372Z,18.10
2018-02-13T17:51:44.648Z,15.85
2018-02-13T17:54:13.644Z,20.02
2018-02-13T17:56:42.615Z,20.90
2018-02-13T17:59:12.377Z,19.80
2018-02-13T18:01:41.925Z,13.55
2018-02-13T18:04:11.694Z,14.77
2018-02-13T18:06:40.691Z,14.87
2018-02-13T18:09:09.719Z,15.50
2018-02-13T18:16:09.753Z,16.73
2018-02-13T18:18:39.026Z,17.48
2018-02-13T18:22:32.948Z,16.00
2018-02-13T18:29:34.382Z,20.58
2018-02-13T18:32:03.694Z,16.23
2018-02-13T18:34:32.698Z,15.90
2018-02-13T18:37:02.407Z,16.30
2018-02-13T18:39:31.495Z,16.73
2018-02-13T18:42:00.489Z,23.05
2018-02-13T18:44:29.927Z,16.15
2018-02-13T18:46:59.753Z,16.42
2018-02-13T18:49:29.014Z,17.40
2018-02-13T18:51:58.256Z,15.52
2018-02-13T18:54:28.210Z,15.68
2018-02-13T18:56:57.301Z,14.27
2018-02-13T18:59:26.846Z,15.25
2018-02-13T19:01:57.999Z,17.52
2018-02-13T19:04:28.660Z,17.83
2018-02-13T19:11:46.472Z,20.23
2018-02-13T19:14:16.526Z,24.35
2018-02-13T19:19:15.438Z,16.12
2018-02-13T19:21:44.484Z,14.95
2018-02-13T19:28:44.061Z,17.08
2018-02-13T19:31:14.626Z,19.55
2018-02-13T19:38:17.885Z,15.68
2018-02-13T19:40:46.956Z,18.27
2018-02-13T19:43:15.991Z,16.45
2018-02-13T19:45:45.788Z,20.37
2018-02-13T19:48:18.201Z,15.73
2018-02-13T19:50:49.240Z,16.17
2018-02-13T19:57:47.675Z,14.25
2018-02-13T20:00:16.771Z,19.67
2018-02-13T20:02:47.510Z,17.52
2018-02-13T20:09:49.021Z,18.85
2018-02-13T20:12:18.142Z,16.27
2018-02-13T20:14:49.293Z,20.75
2018-02-13T20:17:19.373Z,17.73
2018-02-13T20:19:50.469Z,17.00
2018-02-13T20:24:58.742Z,17.08
2018-02-13T20:27:27.883Z,15.85
2018-02-13T20:34:26.868Z,18.15
2018-02-13T20:36:55.978Z,17.70
2018-02-13T20:39:33.279Z,19.00
2018-02-13T20:42:03.248Z,18.62
2018-02-13T20:44:32.230Z,21.27
2018-02-13T20:47:03.249Z,17.08
2018-02-13T20:54:02.295Z,13.40
2018-02-13T20:56:33.208Z,18.15
2018-02-13T20:59:03.288Z,15.98
2018-02-13T21:01:33.975Z,22.35
2018-02-13T21:04:02.937Z,16.37
2018-02-13T21:06:32.077Z,22.60
2018-02-13T21:13:33.398Z,22.75
2018-02-13T21:16:03.298Z,20.90
2018-02-13T21:18:32.446Z,18.42
2018-02-13T21:21:02.988Z,18.45
2018-02-13T21:23:32.023Z,14.90
2018-02-13T21:26:02.773Z,15.93
2018-02-13T21:28:43.712Z,16.08
2018-02-13T21:31:14.805Z,15.75
2018-02-13T21:33:56.381Z,18.17
2018-02-13T21:36:26.953Z,15.27
2018-02-13T21:38:56.920Z,18.80
2018-02-13T21:41:28.105Z,18.23
2018-02-13T21:43:58.343Z,16.40
2018-02-13T21:46:28.309Z,17.83
2018-02-13T21:49:07.923Z,17.62
2018-02-13T21:51:37.052Z,15.68
2018-02-13T21:54:06.040Z,14.18
2018-02-13T21:57:37.676Z,13.38
2018-02-13T22:14:54.296Z,15.77
2018-02-13T22:22:03.426Z,15.52
2018-02-13T22:24:33.172Z,15.43
2018-02-13T22:27:02.119Z,11.88
2018-02-13T22:29:31.062Z,14.70
2018-02-13T22:32:00.020Z,15.23
2018-02-13T22:34:29.720Z,12.48
2018-02-13T22:36:58.657Z,13.80
2018-02-13T22:39:27.631Z,11.23
2018-02-13T22:41:57.417Z,14.02
2018-02-13T22:44:26.463Z,12.95
2018-02-13T22:46:55.442Z,15.13
2018-02-13T22:49:24.449Z,14.80
